Time;durP1;ratioP1;P1;durP2;ratioP2;P2;SDS_P1;SDS_P2;PMS_P1;PMS_P2;Temp;Humidity;BMP_temperature;BMP_pressure;BME280_temperature;BME280_humidity;BME280_pressure;Samples;Min_cycle;Max_cycle;Signal;HPM_P1;HPM_P2
2021/03/19 00:01:36;;;;;;;1.60;1.50;;;4.80;98.20;;;;;;5027902;28;20478;-77
2021/03/19 00:04:02;;;;;;;1.60;1.30;;;4.80;98.20;;;;;;5043145;28;20495;-78
2021/03/19 00:06:28;;;;;;;1.60;1.50;;;4.70;98.20;;;;;;5025109;28;20539;-78
2021/03/19 00:08:55;;;;;;;1.60;1.30;;;4.70;98.20;;;;;;5043322;28;20466;-78
2021/03/19 00:11:22;;;;;;;1.60;1.40;;;4.70;98.20;;;;;;5022140;28;20470;-76
2021/03/19 00:13:48;;;;;;;1.70;1.50;;;4.60;98.20;;;;;;5044011;28;20989;-78
2021/03/19 00:16:15;;;;;;;1.70;1.50;;;4.60;98.20;;;;;;5024903;28;20519;-77
2021/03/19 00:18:42;;;;;;;1.60;1.30;;;4.60;98.20;;;;;;5050440;28;20470;-79
2021/03/19 00:21:08;;;;;;;1.60;1.30;;;4.50;98.20;;;;;;5018296;28;20505;-78
2021/03/19 00:23:34;;;;;;;1.60;1.40;;;4.50;98.20;;;;;;5027248;28;20482;-76
2021/03/19 00:26:01;;;;;;;1.67;1.40;;;4.50;98.20;;;;;;5020835;28;20455;-78
2021/03/19 00:28:28;;;;;;;1.60;1.40;;;4.40;98.20;;;;;;5027668;28;20475;-79
2021/03/19 00:30:54;;;;;;;1.87;1.77;;;4.40;98.20;;;;;;5023705;28;20461;-75
2021/03/19 00:33:21;;;;;;;1.60;1.40;;;4.40;98.20;;;;;;5045573;28;20498;-79
2021/03/19 00:35:48;;;;;;;1.60;1.30;;;4.40;98.20;;;;;;5024270;28;20467;-77
2021/03/19 00:38:14;;;;;;;1.67;1.40;;;4.30;98.20;;;;;;5046102;28;20542;-79
2021/03/19 00:40:41;;;;;;;1.63;1.50;;;4.30;98.20;;;;;;5031955;28;20521;-77
2021/03/19 00:43:09;;;;;;;1.67;1.40;;;4.30;98.20;;;;;;5039492;28;21006;-77
2021/03/19 00:45:36;;;;;;;1.63;1.40;;;4.30;98.20;;;;;;5031117;28;20478;-77
2021/03/19 00:48:03;;;;;;;1.80;1.70;;;4.30;98.20;;;;;;5034409;28;20570;-77
2021/03/19 00:50:32;;;;;;;1.70;1.60;;;4.30;98.20;;;;;;5029799;28;20474;-78
2021/03/19 00:52:59;;;;;;;4.37;4.07;;;4.30;98.20;;;;;;5028550;28;20485;-75
2021/03/19 00:55:25;;;;;;;1.97;1.80;;;4.30;98.20;;;;;;5039072;28;20494;-79
2021/03/19 00:57:52;;;;;;;1.70;1.50;;;4.30;98.20;;;;;;5032291;28;20984;-80
2021/03/19 01:00:20;;;;;;;1.60;1.30;;;4.30;98.20;;;;;;5032598;28;20468;-78
2021/03/19 01:02:46;;;;;;;1.60;1.30;;;4.20;98.20;;;;;;5036387;28;20465;-76
2021/03/19 01:05:17;;;;;;;1.60;1.40;;;4.20;98.20;;;;;;5035770;28;20520;-76
2021/03/19 01:07:44;;;;;;;1.70;1.50;;;4.20;98.20;;;;;;5027442;28;20473;-76
2021/03/19 01:10:13;;;;;;;1.67;1.50;;;4.20;98.20;;;;;;5032035;28;20464;-77
2021/03/19 01:12:39;;;;;;;1.67;1.50;;;4.20;98.20;;;;;;5040743;28;20476;-77
2021/03/19 01:15:07;;;;;;;1.60;1.40;;;4.20;98.20;;;;;;5032395;28;20540;-79
2021/03/19 01:17:34;;;;;;;1.60;1.47;;;4.20;98.20;;;;;;5040048;28;20473;-76
2021/03/19 01:20:02;;;;;;;1.60;1.33;;;4.10;98.20;;;;;;5030230;28;20475;-77
2021/03/19 01:22:28;;;;;;;1.60;1.50;;;4.10;98.20;;;;;;5034489;28;20485;-79
2021/03/19 01:24:56;;;;;;;1.60;1.40;;;4.10;98.20;;;;;;5029896;28;20545;-79
2021/03/19 01:27:22;;;;;;;1.60;1.40;;;4.10;98.20;;;;;;5029873;28;20489;-77
2021/03/19 01:29:48;;;;;;;1.70;1.50;;;4.10;98.20;;;;;;5032578;28;20462;-79
2021/03/19 01:32:14;;;;;;;1.70;1.50;;;4.00;98.20;;;;;;5032363;28;20478;-76
2021/03/19 01:34:40;;;;;;;1.70;1.50;;;4.00;98.20;;;;;;5036754;28;20487;-78
2021/03/19 01:37:07;;;;;;;2.30;2.10;;;3.90;98.20;;;;;;5019429;28;20890;-76
2021/03/19 01:39:33;;;;;;;1.67;1.40;;;3.90;98.20;;;;;;5030169;28;20550;-75
2021/03/19 01:42:01;;;;;;;1.60;1.30;;;3.90;98.20;;;;;;5025652;28;20486;-76
2021/03/19 01:44:29;;;;;;;1.70;1.50;;;3.90;98.20;;;;;;5033051;28;20487;-78
2021/03/19 01:47:33;;;;;;;1.60;1.40;;;3.80;98.20;;;;;;5027159;28;20478;-76
2021/03/19 01:50:36;;;;;;;1.60;1.40;;;3.80;98.20;;;;;;5028823;28;20525;-79
2021/03/19 01:53:40;;;;;;;1.80;1.40;;;3.70;98.20;;;;;;5032203;28;20474;-79
2021/03/19 01:56:43;;;;;;;1.70;1.50;;;3.70;98.20;;;;;;5021692;28;20506;-78
2021/03/19 01:59:47;;;;;;;1.70;1.40;;;3.70;98.20;;;;;;5039186;28;20821;-77
2021/03/19 02:02:50;;;;;;;1.70;1.50;;;3.60;98.20;;;;;;5025691;28;20474;-77
2021/03/19 02:05:54;;;;;;;1.63;1.40;;;3.60;98.20;;;;;;5034375;28;20463;-77
2021/03/19 02:08:57;;;;;;;1.63;1.50;;;3.60;98.20;;;;;;5001812;28;20494;-76
2021/03/19 02:12:01;;;;;;;2.17;1.97;;;3.60;98.20;;;;;;5020139;28;20532;-75
2021/03/19 02:15:04;;;;;;;1.63;1.40;;;3.50;98.20;;;;;;5036964;28;20544;-78
2021/03/19 02:18:08;;;;;;;1.60;1.40;;;3.50;98.20;;;;;;5027990;28;20490;-77
2021/03/19 02:21:11;;;;;;;1.70;1.50;;;3.50;98.20;;;;;;5030959;28;20463;-75
2021/03/19 02:24:15;;;;;;;1.67;1.50;;;3.50;98.20;;;;;;4986657;28;20490;-76
2021/03/19 02:27:18;;;;;;;1.60;1.40;;;3.40;98.20;;;;;;5016846;28;20482;-79
2021/03/19 02:30:22;;;;;;;1.60;1.40;;;3.40;98.20;;;;;;5024258;28;21021;-79
2021/03/19 02:32:49;;;;;;;1.63;1.50;;;3.40;98.20;;;;;;5027739;28;20570;-76
2021/03/19 02:35:19;;;;;;;1.60;1.40;;;3.30;98.20;;;;;;5037119;28;20462;-76
2021/03/19 02:37:45;;;;;;;1.70;1.50;;;3.30;98.20;;;;;;5040222;28;20466;-77
2021/03/19 02:40:14;;;;;;;1.67;1.50;;;3.30;98.20;;;;;;5030081;28;20552;-73
2021/03/19 02:42:40;;;;;;;1.70;1.50;;;3.30;98.20;;;;;;5044970;28;21269;-77
2021/03/19 02:45:11;;;;;;;1.60;1.40;;;3.30;98.20;;;;;;5038715;28;20539;-76
2021/03/19 02:47:38;;;;;;;1.67;1.50;;;3.20;98.20;;;;;;5034443;28;20480;-76
2021/03/19 02:50:06;;;;;;;1.67;1.50;;;3.30;98.20;;;;;;5045608;28;20591;-76
2021/03/19 02:52:35;;;;;;;1.70;1.40;;;3.20;98.20;;;;;;5039997;28;20799;-78
2021/03/19 02:55:02;;;;;;;1.60;1.40;;;3.20;98.20;;;;;;5032141;28;20487;-77
2021/03/19 02:57:28;;;;;;;1.63;1.40;;;3.20;98.20;;;;;;5044810;28;20484;-77
2021/03/19 02:59:54;;;;;;;1.60;1.40;;;3.20;98.20;;;;;;5040245;28;20533;-77
2021/03/19 03:02:21;;;;;;;1.67;1.50;;;3.20;98.20;;;;;;5037532;28;20476;-77
2021/03/19 03:04:47;;;;;;;1.70;1.50;;;3.20;98.20;;;;;;5042128;28;21040;-75
2021/03/19 03:07:23;;;;;;;1.60;1.30;;;3.10;98.20;;;;;;5033197;28;20484;-76
2021/03/19 03:09:50;;;;;;;1.70;1.50;;;3.10;98.20;;;;;;5046356;28;20464;-76
2021/03/19 03:12:16;;;;;;;1.60;1.50;;;3.10;98.20;;;;;;5034636;28;20503;-76
2021/03/19 03:14:42;;;;;;;1.67;1.47;;;3.10;98.20;;;;;;5043572;28;20486;-78
2021/03/19 03:17:09;;;;;;;1.63;1.40;;;3.00;98.20;;;;;;5037031;28;20473;-74
2021/03/19 03:19:36;;;;;;;1.80;1.70;;;3.00;98.20;;;;;;5034393;28;20470;-74
2021/03/19 03:22:04;;;;;;;1.60;1.47;;;3.00;98.20;;;;;;5035705;28;20474;-80
2021/03/19 03:24:31;;;;;;;1.60;1.40;;;3.00;98.20;;;;;;5036250;28;20490;-76
2021/03/19 03:26:57;;;;;;;1.67;1.50;;;3.00;98.20;;;;;;5036220;28;20484;-77
2021/03/19 03:29:26;;;;;;;2.87;2.67;;;3.00;98.20;;;;;;5045372;28;20551;-75
2021/03/19 03:31:53;;;;;;;1.60;1.30;;;2.90;98.20;;;;;;5016384;28;20532;-76
2021/03/19 03:34:20;;;;;;;1.70;1.60;;;2.90;98.20;;;;;;5024883;28;20495;-76
2021/03/19 03:36:46;;;;;;;1.70;1.60;;;2.80;98.20;;;;;;5022852;28;21170;-77
2021/03/19 03:39:16;;;;;;;1.60;1.40;;;2.80;98.20;;;;;;5037053;28;20461;-77
2021/03/19 03:41:43;;;;;;;1.60;1.40;;;2.80;98.20;;;;;;5032519;28;20492;-76
2021/03/19 03:44:13;;;;;;;1.70;1.50;;;2.80;98.20;;;;;;5048799;28;20520;-77
2021/03/19 03:46:39;;;;;;;1.70;1.40;;;2.80;98.20;;;;;;5026701;28;20482;-77
2021/03/19 03:49:06;;;;;;;1.80;1.70;;;2.80;98.20;;;;;;5053280;28;20489;-76
2021/03/19 03:51:32;;;;;;;1.60;1.40;;;2.70;98.20;;;;;;5025950;28;20474;-76
2021/03/19 03:53:59;;;;;;;1.63;1.40;;;2.70;98.20;;;;;;5050294;28;20486;-77
2021/03/19 03:56:27;;;;;;;1.63;1.40;;;2.70;98.20;;;;;;5022907;28;20513;-77
2021/03/19 03:58:54;;;;;;;1.80;1.70;;;2.70;98.20;;;;;;5046024;28;20454;-77
2021/03/19 04:01:21;;;;;;;1.70;1.60;;;2.70;98.20;;;;;;5022745;28;21006;-75
2021/03/19 04:03:47;;;;;;;1.70;1.60;;;2.70;98.20;;;;;;5046867;28;20485;-78
2021/03/19 04:06:14;;;;;;;1.70;1.60;;;2.70;98.20;;;;;;5029051;28;20604;-78
2021/03/19 04:08:40;;;;;;;1.73;1.63;;;2.60;98.20;;;;;;5043062;28;20471;-78
2021/03/19 04:11:09;;;;;;;1.63;1.50;;;2.70;98.20;;;;;;5024890;28;20506;-76
2021/03/19 04:13:36;;;;;;;3.30;2.33;;;2.60;98.20;;;;;;5046564;28;20478;-77
2021/03/19 04:16:04;;;;;;;1.63;1.40;;;2.70;98.20;;;;;;5023743;28;20474;-76
2021/03/19 04:18:31;;;;;;;1.67;1.50;;;2.60;98.20;;;;;;5047956;28;20853;-75
2021/03/19 04:21:00;;;;;;;1.63;1.40;;;2.60;98.20;;;;;;5025238;28;20521;-78
2021/03/19 04:23:28;;;;;;;1.67;1.50;;;2.60;98.20;;;;;;5043656;28;20483;-80
2021/03/19 04:25:55;;;;;;;1.60;1.50;;;2.60;98.20;;;;;;5023289;28;20456;-73
2021/03/19 04:28:25;;;;;;;1.93;1.83;;;2.60;98.20;;;;;;5025795;28;20468;-74
2021/03/19 04:30:51;;;;;;;1.63;1.40;;;2.70;98.20;;;;;;5023515;28;20459;-77
2021/03/19 04:33:22;;;;;;;1.60;1.40;;;2.70;98.20;;;;;;5056947;28;20489;-78
2021/03/19 04:35:52;;;;;;;1.60;1.50;;;2.70;98.20;;;;;;5023443;28;20499;-77
2021/03/19 04:38:18;;;;;;;1.70;1.50;;;2.80;98.20;;;;;;5051749;28;20470;-80
2021/03/19 04:40:46;;;;;;;1.63;1.40;;;2.80;98.20;;;;;;5033400;28;20459;-75
2021/03/19 04:43:15;;;;;;;1.70;1.53;;;2.80;98.20;;;;;;5012015;28;20607;-78
2021/03/19 04:45:43;;;;;;;1.70;1.57;;;2.90;98.20;;;;;;5035839;28;20497;-77
2021/03/19 04:48:10;;;;;;;1.60;1.40;;;2.90;98.20;;;;;;5039577;28;20481;-76
2021/03/19 04:50:37;;;;;;;1.67;1.40;;;3.00;98.20;;;;;;5033072;28;20455;-77
2021/03/19 04:53:04;;;;;;;1.63;1.40;;;3.00;98.20;;;;;;5030712;28;20485;-80
2021/03/19 04:55:30;;;;;;;1.60;1.40;;;3.00;98.20;;;;;;5039635;28;20486;-77
2021/03/19 04:57:56;;;;;;;1.70;1.50;;;3.00;98.20;;;;;;5032528;28;20485;-77
2021/03/19 05:00:23;;;;;;;1.70;1.50;;;3.10;98.20;;;;;;5033662;28;20485;-78
2021/03/19 05:02:52;;;;;;;1.63;1.40;;;3.10;98.20;;;;;;5032109;28;20478;-77
2021/03/19 05:05:21;;;;;;;1.63;1.47;;;3.10;98.20;;;;;;5039565;28;20467;-77
2021/03/19 05:07:48;;;;;;;1.60;1.50;;;3.10;98.20;;;;;;5033643;28;20532;-77
2021/03/19 05:10:17;;;;;;;1.60;1.40;;;3.10;98.20;;;;;;5060996;22;21014;-76
2021/03/19 05:12:44;;;;;;;1.70;1.60;;;3.10;98.20;;;;;;5028101;28;20854;-77
2021/03/19 05:15:11;;;;;;;1.63;1.40;;;3.10;98.20;;;;;;5023399;28;20977;-77
2021/03/19 05:17:38;;;;;;;2.27;2.07;;;3.00;98.20;;;;;;5024932;28;20566;-76
2021/03/19 05:20:08;;;;;;;1.60;1.40;;;3.00;98.20;;;;;;5024420;28;20468;-77
2021/03/19 05:22:34;;;;;;;1.60;1.47;;;3.00;98.20;;;;;;5024696;28;20544;-76
2021/03/19 05:25:01;;;;;;;1.63;1.50;;;2.90;98.20;;;;;;5024134;28;20489;-77
2021/03/19 05:27:28;;;;;;;1.70;1.57;;;2.90;98.20;;;;;;5025162;28;20475;-76
2021/03/19 05:29:57;;;;;;;1.67;1.50;;;2.80;98.20;;;;;;5019033;28;20498;-77
2021/03/19 05:32:24;;;;;;;1.60;1.50;;;2.80;98.20;;;;;;5003212;28;20875;-76
2021/03/19 05:34:50;;;;;;;1.60;1.40;;;2.80;98.20;;;;;;5022131;28;20464;-76
2021/03/19 05:37:17;;;;;;;1.67;1.40;;;2.70;98.20;;;;;;5011699;28;20959;-77
2021/03/19 05:39:43;;;;;;;1.60;1.50;;;2.70;98.20;;;;;;5023847;28;20972;-77
2021/03/19 05:42:15;;;;;;;1.67;1.50;;;2.70;98.20;;;;;;5020368;28;20564;-77
2021/03/19 05:44:44;;;;;;;1.70;1.53;;;2.70;98.20;;;;;;5025412;28;20562;-77
2021/03/19 05:47:11;;;;;;;1.60;1.50;;;2.60;98.20;;;;;;5021010;28;20490;-77
2021/03/19 05:49:37;;;;;;;1.60;1.40;;;2.60;98.20;;;;;;5022499;28;20468;-77
2021/03/19 05:52:18;;;;;;;1.70;1.60;;;2.60;98.20;;;;;;5021564;28;20508;-78
2021/03/19 05:54:45;;;;;;;1.63;1.40;;;2.50;98.20;;;;;;5025853;28;20490;-77
2021/03/19 05:57:22;;;;;;;1.70;1.60;;;2.50;98.20;;;;;;5023020;28;23928;-78
2021/03/19 05:59:51;;;;;;;1.67;1.50;;;2.50;98.20;;;;;;5021686;28;20462;-76
2021/03/19 06:02:24;;;;;;;1.60;1.47;;;2.50;98.20;;;;;;5016610;28;21062;-76
2021/03/19 06:05:10;;;;;;;1.73;1.63;;;2.50;98.20;;;;;;5022280;28;20548;-77
2021/03/19 06:07:38;;;;;;;1.63;1.50;;;2.40;98.20;;;;;;5019996;28;20478;-77
2021/03/19 06:10:23;;;;;;;1.60;1.40;;;2.40;98.20;;;;;;5018391;28;20463;-76
2021/03/19 06:12:53;;;;;;;1.60;1.50;;;2.40;98.20;;;;;;5025348;28;20536;-78
2021/03/19 06:15:29;;;;;;;1.63;1.50;;;2.40;98.20;;;;;;5020441;28;20498;-77
2021/03/19 06:17:58;;;;;;;1.60;1.50;;;2.40;98.20;;;;;;5027861;28;21023;-78
2021/03/19 06:20:26;;;;;;;1.67;1.50;;;2.40;98.20;;;;;;5020397;28;20496;-77
2021/03/19 06:23:04;;;;;;;1.70;1.50;;;2.50;98.20;;;;;;5030864;28;20477;-77
2021/03/19 06:25:38;;;;;;;1.70;1.60;;;2.50;98.20;;;;;;5020259;28;20559;-77
2021/03/19 06:28:14;;;;;;;1.70;1.40;;;2.60;98.20;;;;;;5029000;28;20492;-78
2021/03/19 06:30:43;;;;;;;1.60;1.40;;;2.60;98.20;;;;;;5028280;28;20496;-78
2021/03/19 06:33:28;;;;;;;1.70;1.50;;;2.70;98.20;;;;;;5018439;28;20499;-78
2021/03/19 06:36:10;;;;;;;1.60;1.40;;;2.80;98.20;;;;;;5020346;28;20663;-78
2021/03/19 06:38:39;;;;;;;1.60;1.40;;;2.90;98.20;;;;;;5029787;28;20696;-78
2021/03/19 06:41:24;;;;;;;1.60;1.40;;;3.00;98.20;;;;;;5022319;28;20630;-78
2021/03/19 06:43:54;;;;;;;1.70;1.50;;;3.20;98.20;;;;;;5034541;28;20873;-78
2021/03/19 06:46:25;;;;;;;1.70;1.60;;;3.30;98.20;;;;;;5021830;28;20477;-78
2021/03/19 06:49:02;;;;;;;1.60;1.40;;;3.40;98.20;;;;;;5032267;28;20456;-79
2021/03/19 06:51:30;;;;;;;1.63;1.40;;;3.50;98.20;;;;;;5019908;28;20475;-79
2021/03/19 06:53:59;;;;;;;1.70;1.43;;;3.50;98.20;;;;;;5035899;28;20496;-79
2021/03/19 06:56:26;;;;;;;1.70;1.50;;;3.50;98.20;;;;;;5017429;28;20483;-78
2021/03/19 06:58:53;;;;;;;1.67;1.40;;;3.60;98.20;;;;;;5031406;28;20501;-79
2021/03/19 07:01:32;;;;;;;1.60;1.40;;;3.60;98.20;;;;;;5018704;28;20483;-78
2021/03/19 07:04:24;;;;;;;1.60;1.30;;;3.70;98.20;;;;;;5028035;28;20485;-78
2021/03/19 07:06:55;;;;;;;1.67;1.50;;;3.80;98.20;;;;;;5018080;28;20483;-78
2021/03/19 07:09:36;;;;;;;1.60;1.40;;;3.80;98.20;;;;;;5034325;28;20459;-79
2021/03/19 07:12:15;;;;;;;1.60;1.30;;;3.90;98.20;;;;;;5020201;28;21048;-79
2021/03/19 07:14:52;;;;;;;1.70;1.50;;;3.90;98.20;;;;;;5033774;28;20486;-79
2021/03/19 07:17:39;;;;;;;1.70;1.40;;;4.00;98.20;;;;;;5016871;28;20475;-79
2021/03/19 07:20:14;;;;;;;1.67;1.40;;;4.10;98.20;;;;;;5031397;28;20578;-79
2021/03/19 07:22:54;;;;;;;1.67;1.40;;;4.20;98.20;;;;;;5016196;28;20482;-79
2021/03/19 07:25:44;;;;;;;1.60;1.40;;;4.30;98.20;;;;;;5031186;28;20470;-79
2021/03/19 07:28:26;;;;;;;1.70;1.40;;;4.40;98.20;;;;;;5000595;28;20542;-79
2021/03/19 07:31:06;;;;;;;1.63;1.40;;;4.50;98.20;;;;;;5021967;28;20483;-79
2021/03/19 07:33:59;;;;;;;1.67;1.50;;;4.60;98.20;;;;;;5026896;28;20482;-79
2021/03/19 07:36:50;;;;;;;1.60;1.40;;;4.60;98.20;;;;;;5017480;28;20487;-79
2021/03/19 07:39:41;;;;;;;1.67;1.40;;;4.70;98.20;;;;;;5037072;28;20458;-79
2021/03/19 07:42:21;;;;;;;1.60;1.30;;;4.70;98.20;;;;;;5023900;28;20855;-79
2021/03/19 07:44:59;;;;;;;1.70;1.47;;;4.80;98.20;;;;;;5032054;28;20953;-79
2021/03/19 07:47:49;;;;;;;1.63;1.50;;;4.80;98.10;;;;;;5035616;28;20478;-79
2021/03/19 07:50:27;;;;;;;1.70;1.50;;;4.80;98.20;;;;;;5032379;28;20464;-79
2021/03/19 07:53:13;;;;;;;1.60;1.30;;;5.00;98.00;;;;;;5023250;28;20479;-79
2021/03/19 07:55:53;;;;;;;1.60;1.30;;;5.10;97.70;;;;;;5032013;28;20469;-78
2021/03/19 07:58:33;;;;;;;1.60;1.30;;;5.20;98.10;;;;;;5022971;28;20474;-79
2021/03/19 08:01:08;;;;;;;1.70;1.53;;;5.40;98.00;;;;;;5020528;28;21017;-80
2021/03/19 08:03:37;;;;;;;1.60;1.50;;;5.50;97.90;;;;;;5042565;28;20462;-79
2021/03/19 08:06:11;;;;;;;1.67;1.30;;;5.70;97.20;;;;;;5016741;28;20502;-79
2021/03/19 08:08:43;;;;;;;1.60;1.30;;;5.70;96.40;;;;;;5045260;28;20840;-79
2021/03/19 08:11:19;;;;;;;1.63;1.40;;;5.80;96.60;;;;;;5020770;28;21038;-79
2021/03/19 08:14:05;;;;;;;1.60;1.30;;;5.80;96.00;;;;;;5042078;28;20517;-80
2021/03/19 08:16:39;;;;;;;1.60;1.20;;;5.80;95.90;;;;;;5020774;28;20576;-79
2021/03/19 08:19:25;;;;;;;1.60;1.30;;;5.90;95.70;;;;;;5031977;28;20470;-79
2021/03/19 08:21:58;;;;;;;1.60;1.30;;;6.00;94.80;;;;;;5015763;28;20505;-79
2021/03/19 08:24:35;;;;;;;1.60;1.20;;;6.20;94.70;;;;;;5028903;28;20538;-79
2021/03/19 08:27:10;;;;;;;1.60;1.30;;;6.30;94.20;;;;;;5023169;28;20505;-79
2021/03/19 08:29:46;;;;;;;1.60;1.30;;;6.40;94.70;;;;;;5029336;28;20699;-80
2021/03/19 08:35:58;;;;;;;1.60;1.27;;;6.50;93.70;;;;;;5019285;28;20478;-79
2021/03/19 08:38:31;;;;;;;1.60;1.20;;;6.50;92.70;;;;;;5024655;28;20464;-78
2021/03/19 08:41:00;;;;;;;1.60;1.20;;;6.70;92.80;;;;;;5028140;28;20509;-80
2021/03/19 08:43:33;;;;;;;1.60;1.30;;;6.80;90.70;;;;;;5032424;28;20730;-78
2021/03/19 08:46:07;;;;;;;1.60;1.20;;;6.80;90.60;;;;;;5019205;28;20463;-78
2021/03/19 08:48:34;;;;;;;1.60;1.40;;;6.90;90.50;;;;;;5040524;28;20468;-78
2021/03/19 08:51:20;;;;;;;1.60;1.30;;;7.00;90.10;;;;;;5020439;28;20484;-78
2021/03/19 08:54:15;;;;;;;1.60;1.30;;;7.10;89.40;;;;;;5041327;28;20546;-78
2021/03/19 08:56:44;;;;;;;1.60;1.20;;;7.10;87.70;;;;;;5027430;28;20483;-79
2021/03/19 08:59:12;;;;;;;1.60;1.30;;;7.00;87.10;;;;;;5035970;28;20467;-79
2021/03/19 09:01:53;;;;;;;1.60;1.30;;;7.00;87.90;;;;;;5022695;28;20479;-77
2021/03/19 09:04:59;;;;;;;1.60;1.30;;;7.10;88.10;;;;;;5037943;28;20491;-78
2021/03/19 09:07:29;;;;;;;1.60;1.30;;;7.30;88.70;;;;;;5020510;28;20486;-79
2021/03/19 09:09:57;;;;;;;1.60;1.30;;;7.40;88.90;;;;;;5030266;28;20458;-79
2021/03/19 09:12:26;;;;;;;1.60;1.30;;;7.60;87.20;;;;;;5030186;28;20489;-79
2021/03/19 09:15:28;;;;;;;1.60;1.20;;;7.60;87.80;;;;;;5027495;28;20526;-79
2021/03/19 09:18:01;;;;;;;1.60;1.20;;;7.60;88.10;;;;;;5027943;28;20519;-79
2021/03/19 09:21:03;;;;;;;1.57;1.20;;;7.80;88.00;;;;;;5031860;28;20495;-78
2021/03/19 09:24:04;;;;;;;1.57;1.10;;;7.90;87.40;;;;;;5018523;28;20566;-78
2021/03/19 09:26:42;;;;;;;2.80;2.60;;;8.10;86.10;;;;;;5027205;28;20513;-77
2021/03/19 09:29:34;;;;;;;1.53;1.10;;;8.20;85.80;;;;;;5041647;28;20455;-80
2021/03/19 09:32:21;;;;;;;1.60;1.20;;;8.20;85.90;;;;;;5025722;28;20483;-79
2021/03/19 09:35:15;;;;;;;1.60;1.10;;;8.20;84.70;;;;;;5032385;28;20742;-78
2021/03/19 09:37:51;;;;;;;1.53;1.10;;;8.30;84.40;;;;;;5032912;28;21073;-79
2021/03/19 09:40:43;;;;;;;1.60;1.20;;;8.30;85.10;;;;;;5029602;28;21028;-78
2021/03/19 09:43:30;;;;;;;1.53;1.10;;;8.40;83.20;;;;;;5016703;28;20463;-80
2021/03/19 09:46:05;;;;;;;1.53;1.10;;;8.50;84.10;;;;;;5021183;28;20478;-79
2021/03/19 09:48:35;;;;;;;1.60;1.10;;;8.60;82.30;;;;;;5037311;28;20473;-79
2021/03/19 09:51:14;;;;;;;1.57;1.20;;;8.50;82.10;;;;;;5007231;28;21247;-79
2021/03/19 09:53:40;;;;;;;1.50;1.10;;;8.60;83.60;;;;;;5027199;28;21073;-77
2021/03/19 09:56:34;;;;;;;1.60;1.10;;;8.80;81.60;;;;;;5010599;28;20679;-77
2021/03/19 09:59:08;;;;;;;1.60;1.20;;;8.90;80.80;;;;;;5016159;28;20962;-80
2021/03/19 10:01:42;;;;;;;1.60;1.20;;;8.90;80.80;;;;;;5015951;28;20488;-78
2021/03/19 10:04:12;;;;;;;1.60;1.13;;;8.70;80.80;;;;;;5029680;28;20596;-77
2021/03/19 10:06:44;;;;;;;1.50;1.10;;;8.90;80.40;;;;;;5011827;28;20563;-79
2021/03/19 10:09:17;;;;;;;1.57;1.10;;;9.10;82.60;;;;;;5012068;28;20490;-77
2021/03/19 10:12:12;;;;;;;1.57;1.10;;;9.30;81.00;;;;;;5018135;28;20478;-78
2021/03/19 10:14:40;;;;;;;1.60;1.20;;;9.50;81.30;;;;;;5009479;28;20482;-78
2021/03/19 10:17:22;;;;;;;1.50;1.00;;;9.70;81.00;;;;;;5016640;28;21088;-78
2021/03/19 10:19:51;;;;;;;1.60;1.10;;;10.00;80.30;;;;;;5020711;28;20464;-77
2021/03/19 10:22:33;;;;;;;1.53;1.10;;;10.10;79.70;;;;;;5020914;28;20503;-79
2021/03/19 10:25:14;;;;;;;1.60;1.10;;;9.90;78.10;;;;;;5024992;28;20487;-79
2021/03/19 10:27:47;;;;;;;1.50;1.10;;;9.80;77.50;;;;;;5027011;28;20484;-79
2021/03/19 10:30:21;;;;;;;1.60;1.10;;;9.50;77.90;;;;;;5026537;28;20808;-79
2021/03/19 10:32:48;;;;;;;1.53;1.10;;;9.40;78.80;;;;;;5029712;28;20671;-77
2021/03/19 10:35:19;;;;;;;1.57;1.13;;;9.30;78.70;;;;;;5022408;28;20581;-79
2021/03/19 10:37:52;;;;;;;1.60;1.20;;;9.30;78.90;;;;;;5015393;28;20909;-78
2021/03/19 10:40:28;;;;;;;1.53;1.10;;;9.20;78.40;;;;;;5019115;28;20495;-77
2021/03/19 10:43:03;;;;;;;1.50;1.00;;;9.30;78.90;;;;;;5013560;28;20483;-79
2021/03/19 10:45:37;;;;;;;1.60;1.10;;;9.30;78.00;;;;;;5024966;28;20468;-79
2021/03/19 10:48:15;;;;;;;1.53;1.10;;;9.40;77.20;;;;;;5026365;28;20565;-77
2021/03/19 10:50:52;;;;;;;1.50;1.10;;;9.50;77.00;;;;;;5016844;28;20494;-79
2021/03/19 10:53:24;;;;;;;2.07;1.87;;;9.70;77.30;;;;;;5010302;28;20491;-78
2021/03/19 10:55:51;;;;;;;1.57;1.10;;;9.80;76.00;;;;;;5017535;28;20890;-79
2021/03/19 10:58:33;;;;;;;1.53;1.10;;;10.00;76.90;;;;;;5039526;28;20478;-78
2021/03/19 11:00:59;;;;;;;1.57;1.07;;;10.20;75.10;;;;;;5008900;28;21002;-79
2021/03/19 11:03:38;;;;;;;1.60;1.10;;;10.30;73.50;;;;;;5045241;28;20459;-79
2021/03/19 11:06:08;;;;;;;1.57;1.10;;;10.40;74.00;;;;;;5008819;28;20470;-79
2021/03/19 11:08:34;;;;;;;1.57;1.00;;;10.50;72.30;;;;;;5037402;28;20548;-79
2021/03/19 11:11:01;;;;;;;1.57;1.03;;;10.60;72.40;;;;;;5019991;28;20487;-80
2021/03/19 11:13:30;;;;;;;1.50;1.10;;;10.70;73.60;;;;;;5085176;23;20577;-80
2021/03/19 11:16:00;;;;;;;1.50;1.00;;;10.80;74.30;;;;;;5032995;28;20459;-81
2021/03/19 11:18:31;;;;;;;1.57;1.00;;;11.10;72.70;;;;;;5053989;28;20502;-81
2021/03/19 11:21:02;;;;;;;1.53;1.10;;;11.10;74.30;;;;;;5035002;28;20459;-81
2021/03/19 11:23:36;;;;;;;1.50;1.00;;;11.00;73.60;;;;;;5027912;28;20486;-80
2021/03/19 11:26:19;;;;;;;1.57;1.10;;;11.00;74.40;;;;;;5015387;28;20456;-81
2021/03/19 11:28:48;;;;;;;1.50;1.00;;;11.20;74.90;;;;;;5034466;28;20502;-80
2021/03/19 11:31:32;;;;;;;1.60;1.10;;;11.40;74.30;;;;;;5017885;28;20883;-81
2021/03/19 11:34:28;;;;;;;1.60;1.10;;;11.50;70.30;;;;;;5027504;28;20495;-79
2021/03/19 11:36:59;;;;;;;1.60;1.20;;;11.50;70.60;;;;;;5004692;28;20546;-80
2021/03/19 11:39:40;;;;;;;1.50;1.00;;;11.40;68.80;;;;;;5017278;28;20503;-81
2021/03/19 11:42:12;;;;;;;1.60;1.10;;;11.30;70.50;;;;;;5000176;28;20519;-82
2021/03/19 11:44:39;;;;;;;1.57;1.00;;;11.20;69.30;;;;;;5009177;28;20475;-81
2021/03/19 11:47:25;;;;;;;1.50;1.00;;;11.10;70.20;;;;;;5010610;28;20501;-81
2021/03/19 11:49:56;;;;;;;1.50;1.00;;;11.40;72.90;;;;;;5009614;28;20473;-81
2021/03/19 11:52:23;;;;;;;1.60;1.10;;;11.70;73.50;;;;;;5009582;28;20614;-83
2021/03/19 11:54:49;;;;;;;1.60;1.10;;;11.90;72.70;;;;;;5011625;28;20575;-80
2021/03/19 11:57:17;;;;;;;1.60;1.10;;;12.10;71.70;;;;;;5008783;28;20480;-81
2021/03/19 11:59:44;;;;;;;1.57;1.00;;;12.30;72.50;;;;;;5017739;28;20794;-82
2021/03/19 12:02:39;;;;;;;1.60;1.10;;;12.40;71.00;;;;;;5007691;28;20510;-81
2021/03/19 12:05:07;;;;;;;1.50;1.00;;;12.50;71.90;;;;;;5014008;28;20563;-82
2021/03/19 12:07:33;;;;;;;1.50;1.00;;;12.50;70.80;;;;;;5005138;28;20488;-80
2021/03/19 12:09:59;;;;;;;1.57;1.00;;;12.30;70.80;;;;;;5016232;28;20452;-80
2021/03/19 12:12:26;;;;;;;1.50;1.00;;;12.30;70.00;;;;;;5018731;28;20479;-80
2021/03/19 12:14:55;;;;;;;1.50;1.00;;;12.30;70.50;;;;;;5017049;28;20787;-80
2021/03/19 12:17:22;;;;;;;1.50;1.00;;;12.40;69.80;;;;;;5006688;28;20480;-78
2021/03/19 12:19:52;;;;;;;1.57;1.10;;;12.40;70.40;;;;;;5012099;28;20472;-79
2021/03/19 12:22:20;;;;;;;1.57;1.10;;;12.50;68.60;;;;;;5015337;28;20495;-81
2021/03/19 12:24:46;;;;;;;1.50;1.00;;;12.40;67.80;;;;;;5012188;28;20506;-80
2021/03/19 12:27:14;;;;;;;1.57;1.00;;;12.30;68.80;;;;;;5013612;28;20529;-80
2021/03/19 12:29:41;;;;;;;1.53;1.00;;;12.20;68.00;;;;;;5010371;28;20472;-80
2021/03/19 12:32:08;;;;;;;1.57;1.10;;;12.20;68.50;;;;;;5012766;28;20545;-80
2021/03/19 12:34:46;;;;;;;1.50;1.00;;;12.30;68.00;;;;;;5011377;28;20496;-79
2021/03/19 12:37:13;;;;;;;1.50;1.00;;;12.00;66.30;;;;;;5015359;28;20483;-79
2021/03/19 12:39:40;;;;;;;1.50;1.00;;;12.00;67.30;;;;;;5022259;28;20460;-79
2021/03/19 12:42:07;;;;;;;1.50;1.00;;;12.10;67.20;;;;;;5014106;28;20495;-81
2021/03/19 12:44:33;;;;;;;1.53;1.00;;;12.10;66.40;;;;;;5019289;28;20735;-80
2021/03/19 12:47:00;;;;;;;1.53;1.00;;;12.00;67.70;;;;;;5013002;28;20491;-80
2021/03/19 12:49:27;;;;;;;1.57;1.03;;;12.00;66.10;;;;;;5019069;28;20468;-81
2021/03/19 12:51:55;;;;;;;1.50;1.00;;;11.90;67.40;;;;;;4999947;28;20771;-80
2021/03/19 12:54:21;;;;;;;1.50;0.97;;;12.00;66.50;;;;;;5015318;28;20488;-80
2021/03/19 12:56:47;;;;;;;1.57;1.00;;;11.90;65.90;;;;;;5004582;28;20480;-79
2021/03/19 12:59:14;;;;;;;1.50;1.00;;;12.00;66.40;;;;;;5015697;28;20476;-79
2021/03/19 13:01:43;;;;;;;1.50;1.00;;;11.80;65.60;;;;;;5006178;28;20484;-80
2021/03/19 13:04:11;;;;;;;1.50;1.00;;;11.80;65.30;;;;;;5011924;28;20978;-79
2021/03/19 13:06:38;;;;;;;1.50;1.00;;;11.60;64.60;;;;;;5004904;28;20484;-78
2021/03/19 13:09:06;;;;;;;1.53;1.00;;;11.70;65.60;;;;;;5015695;28;20463;-80
2021/03/19 13:11:32;;;;;;;1.57;1.10;;;11.80;64.40;;;;;;5005790;28;20514;-80
2021/03/19 13:13:59;;;;;;;1.50;1.00;;;11.80;64.30;;;;;;5011944;28;20487;-81
2021/03/19 13:16:27;;;;;;;1.53;1.00;;;12.00;66.40;;;;;;5011832;28;20494;-78
2021/03/19 13:18:53;;;;;;;1.53;1.00;;;11.80;66.80;;;;;;5026165;28;20480;-81
2021/03/19 13:21:20;;;;;;;1.50;1.10;;;11.90;67.30;;;;;;5008055;28;20510;-78
2021/03/19 13:23:48;;;;;;;1.60;1.10;;;11.70;66.90;;;;;;5010562;28;20482;-79
2021/03/19 13:26:14;;;;;;;1.50;1.10;;;11.60;65.40;;;;;;5004894;28;20534;-79
2021/03/19 13:28:40;;;;;;;1.57;1.00;;;11.40;65.10;;;;;;5022736;28;20961;-80
2021/03/19 13:31:07;;;;;;;1.57;1.10;;;11.20;65.50;;;;;;5006389;28;20526;-80